sensor_id;sensor_type;location;lat;lon;timestamp;P1;durP1;ratioP1;P2;durP2;ratioP2
45694;SDS011;31408;45.468;9.124;2023-04-24T00:00:45;7.90;;;4.60;;
45694;SDS011;31408;45.468;9.124;2023-04-24T00:03:11;5.90;;;3.38;;
45694;SDS011;31408;45.468;9.124;2023-04-24T00:05:37;9.13;;;4.85;;
45694;SDS011;31408;45.468;9.124;2023-04-24T00:08:05;8.18;;;5.13;;
45694;SDS011;31408;45.468;9.124;2023-04-24T00:10:31;7.32;;;4.28;;
45694;SDS011;31408;45.468;9.124;2023-04-24T00:12:56;15.32;;;6.57;;
45694;SDS011;31408;45.468;9.124;2023-04-24T00:15:22;12.68;;;5.55;;
45694;SDS011;31408;45.468;9.124;2023-04-24T00:17:48;12.48;;;5.38;;
45694;SDS011;31408;45.468;9.124;2023-04-24T00:20:13;10.52;;;5.30;;
45694;SDS011;31408;45.468;9.124;2023-04-24T00:22:39;12.15;;;6.18;;
45694;SDS011;31408;45.468;9.124;2023-04-24T00:25:05;10.35;;;5.32;;
45694;SDS011;31408;45.468;9.124;2023-04-24T00:27:31;8.43;;;4.53;;
45694;SDS011;31408;45.468;9.124;2023-04-24T00:29:56;12.95;;;5.65;;
45694;SDS011;31408;45.468;9.124;2023-04-24T00:32:22;7.72;;;4.05;;
45694;SDS011;31408;45.468;9.124;2023-04-24T00:34:47;9.07;;;4.53;;
45694;SDS011;31408;45.468;9.124;2023-04-24T00:37:13;9.15;;;4.70;;
45694;SDS011;31408;45.468;9.124;2023-04-24T00:39:38;6.60;;;3.75;;
45694;SDS011;31408;45.468;9.124;2023-04-24T00:42:04;7.88;;;4.15;;
45694;SDS011;31408;45.468;9.124;2023-04-24T00:44:32;6.50;;;4.35;;
45694;SDS011;31408;45.468;9.124;2023-04-24T00:46:58;9.75;;;4.97;;
45694;SDS011;31408;45.468;9.124;2023-04-24T00:49:24;12.70;;;4.75;;
45694;SDS011;31408;45.468;9.124;2023-04-24T00:51:49;9.07;;;4.68;;
45694;SDS011;31408;45.468;9.124;2023-04-24T00:54:16;11.45;;;4.93;;
45694;SDS011;31408;45.468;9.124;2023-04-24T00:56:42;6.50;;;4.18;;
45694;SDS011;31408;45.468;9.124;2023-04-24T00:59:09;6.10;;;4.03;;
45694;SDS011;31408;45.468;9.124;2023-04-24T01:01:34;10.13;;;4.93;;
45694;SDS011;31408;45.468;9.124;2023-04-24T01:04:00;9.50;;;4.97;;
45694;SDS011;31408;45.468;9.124;2023-04-24T01:06:27;11.38;;;4.97;;
45694;SDS011;31408;45.468;9.124;2023-04-24T01:08:54;8.90;;;4.78;;
45694;SDS011;31408;45.468;9.124;2023-04-24T01:11:21;9.15;;;4.95;;
45694;SDS011;31408;45.468;9.124;2023-04-24T01:13:47;8.15;;;4.60;;
45694;SDS011;31408;45.468;9.124;2023-04-24T01:16:13;10.20;;;5.03;;
45694;SDS011;31408;45.468;9.124;2023-04-24T01:18:43;12.10;;;4.25;;
45694;SDS011;31408;45.468;9.124;2023-04-24T01:21:10;9.93;;;5.35;;
45694;SDS011;31408;45.468;9.124;2023-04-24T01:23:38;11.73;;;5.25;;
45694;SDS011;31408;45.468;9.124;2023-04-24T01:26:04;13.50;;;5.88;;
45694;SDS011;31408;45.468;9.124;2023-04-24T01:28:29;10.43;;;6.18;;
45694;SDS011;31408;45.468;9.124;2023-04-24T01:30:55;13.80;;;7.10;;
45694;SDS011;31408;45.468;9.124;2023-04-24T01:33:22;18.38;;;7.90;;
45694;SDS011;31408;45.468;9.124;2023-04-24T01:35:48;15.35;;;9.13;;
45694;SDS011;31408;45.468;9.124;2023-04-24T01:38:14;19.65;;;8.90;;
45694;SDS011;31408;45.468;9.124;2023-04-24T01:40:39;17.88;;;8.73;;
45694;SDS011;31408;45.468;9.124;2023-04-24T01:43:05;14.10;;;8.10;;
45694;SDS011;31408;45.468;9.124;2023-04-24T01:45:30;18.27;;;8.13;;
45694;SDS011;31408;45.468;9.124;2023-04-24T01:47:56;17.05;;;9.05;;
45694;SDS011;31408;45.468;9.124;2023-04-24T01:50:22;21.60;;;9.65;;
45694;SDS011;31408;45.468;9.124;2023-04-24T01:52:48;16.45;;;8.57;;
45694;SDS011;31408;45.468;9.124;2023-04-24T01:55:14;15.85;;;7.50;;
45694;SDS011;31408;45.468;9.124;2023-04-24T01:57:40;12.73;;;7.75;;
45694;SDS011;31408;45.468;9.124;2023-04-24T02:00:05;13.95;;;7.80;;
45694;SDS011;31408;45.468;9.124;2023-04-24T02:02:41;14.05;;;7.53;;
45694;SDS011;31408;45.468;9.124;2023-04-24T02:05:07;16.50;;;8.10;;
45694;SDS011;31408;45.468;9.124;2023-04-24T02:07:35;14.45;;;7.88;;
45694;SDS011;31408;45.468;9.124;2023-04-24T02:10:00;11.68;;;7.15;;
45694;SDS011;31408;45.468;9.124;2023-04-24T02:12:26;15.55;;;7.25;;
45694;SDS011;31408;45.468;9.124;2023-04-24T02:14:51;18.73;;;6.55;;
45694;SDS011;31408;45.468;9.124;2023-04-24T02:17:17;12.32;;;6.70;;
45694;SDS011;31408;45.468;9.124;2023-04-24T02:19:44;14.95;;;6.57;;
45694;SDS011;31408;45.468;9.124;2023-04-24T02:22:10;17.13;;;6.72;;
45694;SDS011;31408;45.468;9.124;2023-04-24T02:24:36;16.73;;;7.03;;
45694;SDS011;31408;45.468;9.124;2023-04-24T02:27:02;16.90;;;6.03;;
45694;SDS011;31408;45.468;9.124;2023-04-24T02:29:28;14.90;;;6.55;;
45694;SDS011;31408;45.468;9.124;2023-04-24T02:31:53;12.63;;;6.43;;
45694;SDS011;31408;45.468;9.124;2023-04-24T02:34:18;12.90;;;5.47;;
45694;SDS011;31408;45.468;9.124;2023-04-24T02:36:44;11.35;;;6.07;;
45694;SDS011;31408;45.468;9.124;2023-04-24T02:39:09;9.02;;;5.28;;
45694;SDS011;31408;45.468;9.124;2023-04-24T02:41:35;13.07;;;5.82;;
45694;SDS011;31408;45.468;9.124;2023-04-24T02:44:00;12.13;;;5.50;;
45694;SDS011;31408;45.468;9.124;2023-04-24T02:46:26;7.18;;;4.47;;
45694;SDS011;31408;45.468;9.124;2023-04-24T02:48:51;12.02;;;6.65;;
45694;SDS011;31408;45.468;9.124;2023-04-24T02:51:17;6.80;;;4.25;;
45694;SDS011;31408;45.468;9.124;2023-04-24T02:53:42;10.85;;;4.55;;
45694;SDS011;31408;45.468;9.124;2023-04-24T02:56:08;11.95;;;6.10;;
45694;SDS011;31408;45.468;9.124;2023-04-24T02:58:33;8.77;;;4.50;;
45694;SDS011;31408;45.468;9.124;2023-04-24T03:00:59;10.85;;;4.43;;
45694;SDS011;31408;45.468;9.124;2023-04-24T03:03:25;11.13;;;4.32;;
45694;SDS011;31408;45.468;9.124;2023-04-24T03:05:51;9.68;;;5.18;;
45694;SDS011;31408;45.468;9.124;2023-04-24T03:08:16;9.20;;;4.78;;
45694;SDS011;31408;45.468;9.124;2023-04-24T03:10:42;10.27;;;5.40;;
45694;SDS011;31408;45.468;9.124;2023-04-24T03:13:08;8.88;;;4.85;;
45694;SDS011;31408;45.468;9.124;2023-04-24T03:15:33;9.25;;;4.72;;
45694;SDS011;31408;45.468;9.124;2023-04-24T03:17:59;8.50;;;4.68;;
45694;SDS011;31408;45.468;9.124;2023-04-24T03:20:25;8.00;;;5.15;;
45694;SDS011;31408;45.468;9.124;2023-04-24T03:22:52;11.32;;;5.15;;
45694;SDS011;31408;45.468;9.124;2023-04-24T03:25:18;10.60;;;5.13;;
45694;SDS011;31408;45.468;9.124;2023-04-24T03:27:43;8.55;;;5.35;;
45694;SDS011;31408;45.468;9.124;2023-04-24T03:30:36;14.55;;;5.63;;
45694;SDS011;31408;45.468;9.124;2023-04-24T03:33:03;7.60;;;4.38;;
45694;SDS011;31408;45.468;9.124;2023-04-24T03:35:32;12.52;;;6.22;;
45694;SDS011;31408;45.468;9.124;2023-04-24T03:38:00;9.90;;;5.30;;
45694;SDS011;31408;45.468;9.124;2023-04-24T03:40:47;9.63;;;5.30;;
45694;SDS011;31408;45.468;9.124;2023-04-24T03:43:29;13.50;;;5.37;;
45694;SDS011;31408;45.468;9.124;2023-04-24T03:45:58;13.40;;;5.70;;
45694;SDS011;31408;45.468;9.124;2023-04-24T03:48:24;9.77;;;4.30;;
45694;SDS011;31408;45.468;9.124;2023-04-24T03:50:49;7.65;;;4.65;;
45694;SDS011;31408;45.468;9.124;2023-04-24T03:53:15;13.75;;;5.07;;
45694;SDS011;31408;45.468;9.124;2023-04-24T03:55:41;10.50;;;5.60;;
45694;SDS011;31408;45.468;9.124;2023-04-24T03:58:08;9.65;;;5.28;;
45694;SDS011;31408;45.468;9.124;2023-04-24T04:00:33;10.15;;;4.90;;
45694;SDS011;31408;45.468;9.124;2023-04-24T04:03:19;9.40;;;5.30;;
45694;SDS011;31408;45.468;9.124;2023-04-24T04:05:45;11.27;;;5.32;;
45694;SDS011;31408;45.468;9.124;2023-04-24T04:08:10;16.27;;;6.00;;
45694;SDS011;31408;45.468;9.124;2023-04-24T04:10:36;8.63;;;5.03;;
45694;SDS011;31408;45.468;9.124;2023-04-24T04:13:03;10.05;;;5.35;;
45694;SDS011;31408;45.468;9.124;2023-04-24T04:15:29;9.65;;;4.85;;
45694;SDS011;31408;45.468;9.124;2023-04-24T04:17:54;10.98;;;5.60;;
45694;SDS011;31408;45.468;9.124;2023-04-24T04:20:20;9.70;;;4.45;;
45694;SDS011;31408;45.468;9.124;2023-04-24T04:22:46;11.98;;;6.03;;
45694;SDS011;31408;45.468;9.124;2023-04-24T04:25:17;11.07;;;6.07;;
45694;SDS011;31408;45.468;9.124;2023-04-24T04:27:45;8.93;;;4.55;;
45694;SDS011;31408;45.468;9.124;2023-04-24T04:30:13;7.30;;;4.82;;
45694;SDS011;31408;45.468;9.124;2023-04-24T04:32:46;7.18;;;4.88;;
45694;SDS011;31408;45.468;9.124;2023-04-24T04:35:12;8.25;;;5.07;;
45694;SDS011;31408;45.468;9.124;2023-04-24T04:37:38;8.13;;;4.35;;
45694;SDS011;31408;45.468;9.124;2023-04-24T04:40:35;8.57;;;4.75;;
45694;SDS011;31408;45.468;9.124;2023-04-24T04:43:04;10.18;;;5.75;;
45694;SDS011;31408;45.468;9.124;2023-04-24T04:45:36;6.97;;;4.75;;
45694;SDS011;31408;45.468;9.124;2023-04-24T04:48:24;9.73;;;5.65;;
45694;SDS011;31408;45.468;9.124;2023-04-24T04:50:50;9.45;;;5.50;;
45694;SDS011;31408;45.468;9.124;2023-04-24T04:53:16;11.10;;;5.90;;
45694;SDS011;31408;45.468;9.124;2023-04-24T04:55:42;8.55;;;5.22;;
45694;SDS011;31408;45.468;9.124;2023-04-24T04:58:13;7.80;;;4.32;;
45694;SDS011;31408;45.468;9.124;2023-04-24T05:00:39;8.75;;;4.88;;
45694;SDS011;31408;45.468;9.124;2023-04-24T05:03:30;9.98;;;5.30;;
45694;SDS011;31408;45.468;9.124;2023-04-24T05:06:01;11.43;;;6.28;;
45694;SDS011;31408;45.468;9.124;2023-04-24T05:08:28;7.15;;;4.88;;
45694;SDS011;31408;45.468;9.124;2023-04-24T05:10:54;8.77;;;4.22;;
45694;SDS011;31408;45.468;9.124;2023-04-24T05:13:20;7.90;;;5.38;;
45694;SDS011;31408;45.468;9.124;2023-04-24T05:15:46;8.60;;;4.50;;
45694;SDS011;31408;45.468;9.124;2023-04-24T05:18:13;5.53;;;4.15;;
45694;SDS011;31408;45.468;9.124;2023-04-24T05:20:38;9.85;;;4.82;;
45694;SDS011;31408;45.468;9.124;2023-04-24T05:23:04;6.95;;;4.47;;
45694;SDS011;31408;45.468;9.124;2023-04-24T05:25:30;9.75;;;4.03;;
45694;SDS011;31408;45.468;9.124;2023-04-24T05:28:05;8.75;;;4.20;;
45694;SDS011;31408;45.468;9.124;2023-04-24T05:30:37;6.35;;;3.53;;
45694;SDS011;31408;45.468;9.124;2023-04-24T05:33:02;5.15;;;3.50;;
45694;SDS011;31408;45.468;9.124;2023-04-24T05:35:29;5.40;;;3.65;;
45694;SDS011;31408;45.468;9.124;2023-04-24T05:37:55;6.78;;;3.97;;
45694;SDS011;31408;45.468;9.124;2023-04-24T05:40:20;4.82;;;3.47;;
45694;SDS011;31408;45.468;9.124;2023-04-24T05:42:47;6.28;;;3.90;;
45694;SDS011;31408;45.468;9.124;2023-04-24T05:45:12;9.95;;;4.05;;
45694;SDS011;31408;45.468;9.124;2023-04-24T05:47:42;4.68;;;3.60;;
45694;SDS011;31408;45.468;9.124;2023-04-24T05:50:10;12.63;;;4.15;;
45694;SDS011;31408;45.468;9.124;2023-04-24T05:52:36;4.28;;;3.20;;
45694;SDS011;31408;45.468;9.124;2023-04-24T05:55:05;6.20;;;3.50;;
45694;SDS011;31408;45.468;9.124;2023-04-24T05:57:35;7.55;;;3.30;;
45694;SDS011;31408;45.468;9.124;2023-04-24T06:00:02;6.57;;;3.05;;
45694;SDS011;31408;45.468;9.124;2023-04-24T06:02:38;9.43;;;3.92;;
45694;SDS011;31408;45.468;9.124;2023-04-24T06:05:04;5.07;;;3.45;;
45694;SDS011;31408;45.468;9.124;2023-04-24T06:07:30;4.63;;;3.20;;
45694;SDS011;31408;45.468;9.124;2023-04-24T06:09:56;3.55;;;2.67;;
45694;SDS011;31408;45.468;9.124;2023-04-24T06:12:22;4.72;;;2.90;;
45694;SDS011;31408;45.468;9.124;2023-04-24T06:14:59;4.47;;;3.13;;
45694;SDS011;31408;45.468;9.124;2023-04-24T06:17:45;3.38;;;2.08;;
45694;SDS011;31408;45.468;9.124;2023-04-24T06:20:13;7.47;;;2.53;;
45694;SDS011;31408;45.468;9.124;2023-04-24T06:22:39;4.53;;;2.15;;
45694;SDS011;31408;45.468;9.124;2023-04-24T06:25:05;6.47;;;2.72;;
45694;SDS011;31408;45.468;9.124;2023-04-24T06:27:32;7.55;;;3.28;;
45694;SDS011;31408;45.468;9.124;2023-04-24T06:29:57;5.60;;;2.88;;
45694;SDS011;31408;45.468;9.124;2023-04-24T06:32:23;5.68;;;3.30;;
45694;SDS011;31408;45.468;9.124;2023-04-24T06:34:50;3.53;;;2.97;;
45694;SDS011;31408;45.468;9.124;2023-04-24T06:37:17;5.07;;;2.90;;
45694;SDS011;31408;45.468;9.124;2023-04-24T06:39:43;3.63;;;2.45;;
45694;SDS011;31408;45.468;9.124;2023-04-24T06:42:09;5.45;;;2.58;;
45694;SDS011;31408;45.468;9.124;2023-04-24T06:44:35;2.70;;;2.30;;
45694;SDS011;31408;45.468;9.124;2023-04-24T06:47:06;4.75;;;2.40;;
45694;SDS011;31408;45.468;9.124;2023-04-24T06:49:38;3.53;;;2.70;;
45694;SDS011;31408;45.468;9.124;2023-04-24T06:52:03;5.95;;;2.03;;
45694;SDS011;31408;45.468;9.124;2023-04-24T06:54:29;1.85;;;1.63;;
45694;SDS011;31408;45.468;9.124;2023-04-24T06:56:55;2.40;;;1.88;;
45694;SDS011;31408;45.468;9.124;2023-04-24T06:59:22;3.42;;;2.22;;
45694;SDS011;31408;45.468;9.124;2023-04-24T07:01:49;5.03;;;1.90;;
45694;SDS011;31408;45.468;9.124;2023-04-24T07:04:14;3.70;;;2.30;;
45694;SDS011;31408;45.468;9.124;2023-04-24T07:06:39;4.15;;;2.10;;
45694;SDS011;31408;45.468;9.124;2023-04-24T07:09:05;3.28;;;1.80;;
45694;SDS011;31408;45.468;9.124;2023-04-24T07:11:30;5.40;;;2.47;;
45694;SDS011;31408;45.468;9.124;2023-04-24T07:13:56;3.72;;;2.45;;
45694;SDS011;31408;45.468;9.124;2023-04-24T07:16:22;3.55;;;2.35;;
45694;SDS011;31408;45.468;9.124;2023-04-24T07:18:47;3.17;;;1.83;;
45694;SDS011;31408;45.468;9.124;2023-04-24T07:21:13;2.35;;;1.88;;
45694;SDS011;31408;45.468;9.124;2023-04-24T07:23:38;3.88;;;1.92;;
45694;SDS011;31408;45.468;9.124;2023-04-24T07:26:04;4.82;;;1.85;;
45694;SDS011;31408;45.468;9.124;2023-04-24T07:28:29;3.50;;;1.67;;
45694;SDS011;31408;45.468;9.124;2023-04-24T07:30:58;3.83;;;1.73;;
45694;SDS011;31408;45.468;9.124;2023-04-24T07:33:25;3.70;;;1.83;;
45694;SDS011;31408;45.468;9.124;2023-04-24T07:35:53;2.95;;;1.58;;
45694;SDS011;31408;45.468;9.124;2023-04-24T07:38:18;4.35;;;1.77;;
45694;SDS011;31408;45.468;9.124;2023-04-24T07:40:47;7.47;;;2.45;;
45694;SDS011;31408;45.468;9.124;2023-04-24T07:43:13;3.80;;;1.80;;
45694;SDS011;31408;45.468;9.124;2023-04-24T07:45:39;5.13;;;1.80;;
45694;SDS011;31408;45.468;9.124;2023-04-24T07:48:04;21.92;;;2.58;;
45694;SDS011;31408;45.468;9.124;2023-04-24T07:50:30;4.28;;;2.05;;
45694;SDS011;31408;45.468;9.124;2023-04-24T07:52:56;1.67;;;1.48;;
45694;SDS011;31408;45.468;9.124;2023-04-24T07:55:21;2.60;;;1.77;;
45694;SDS011;31408;45.468;9.124;2023-04-24T07:57:46;6.55;;;2.50;;
45694;SDS011;31408;45.468;9.124;2023-04-24T08:00:12;2.08;;;1.60;;
45694;SDS011;31408;45.468;9.124;2023-04-24T08:02:38;2.30;;;1.30;;
45694;SDS011;31408;45.468;9.124;2023-04-24T08:05:04;4.60;;;1.30;;
45694;SDS011;31408;45.468;9.124;2023-04-24T08:07:30;3.58;;;1.65;;
45694;SDS011;31408;45.468;9.124;2023-04-24T08:09:56;1.83;;;1.10;;
45694;SDS011;31408;45.468;9.124;2023-04-24T08:12:21;1.55;;;1.10;;
45694;SDS011;31408;45.468;9.124;2023-04-24T08:14:47;2.97;;;1.35;;
45694;SDS011;31408;45.468;9.124;2023-04-24T08:17:16;2.13;;;1.17;;
45694;SDS011;31408;45.468;9.124;2023-04-24T08:19:42;1.63;;;0.98;;
45694;SDS011;31408;45.468;9.124;2023-04-24T08:22:12;0.75;;;0.75;;
45694;SDS011;31408;45.468;9.124;2023-04-24T08:24:38;1.33;;;1.20;;
45694;SDS011;31408;45.468;9.124;2023-04-24T08:27:04;1.70;;;1.10;;
45694;SDS011;31408;45.468;9.124;2023-04-24T08:29:29;1.05;;;0.93;;
45694;SDS011;31408;45.468;9.124;2023-04-24T08:31:55;3.10;;;0.82;;
45694;SDS011;31408;45.468;9.124;2023-04-24T08:34:21;1.60;;;0.98;;
45694;SDS011;31408;45.468;9.124;2023-04-24T08:36:46;1.88;;;1.10;;
45694;SDS011;31408;45.468;9.124;2023-04-24T08:39:12;1.75;;;1.42;;
45694;SDS011;31408;45.468;9.124;2023-04-24T08:41:37;5.15;;;1.67;;
45694;SDS011;31408;45.468;9.124;2023-04-24T08:44:04;1.23;;;1.10;;
45694;SDS011;31408;45.468;9.124;2023-04-24T08:46:32;3.35;;;1.20;;
45694;SDS011;31408;45.468;9.124;2023-04-24T08:49:03;2.33;;;1.40;;
45694;SDS011;31408;45.468;9.124;2023-04-24T08:51:30;2.60;;;1.02;;
45694;SDS011;31408;45.468;9.124;2023-04-24T08:53:58;1.83;;;1.02;;
45694;SDS011;31408;45.468;9.124;2023-04-24T08:56:23;1.20;;;0.93;;
45694;SDS011;31408;45.468;9.124;2023-04-24T08:58:53;2.30;;;1.10;;
45694;SDS011;31408;45.468;9.124;2023-04-24T09:01:19;1.42;;;1.20;;
45694;SDS011;31408;45.468;9.124;2023-04-24T09:03:46;3.10;;;1.45;;
45694;SDS011;31408;45.468;9.124;2023-04-24T09:06:13;2.40;;;1.65;;
45694;SDS011;31408;45.468;9.124;2023-04-24T09:08:43;1.13;;;1.02;;
45694;SDS011;31408;45.468;9.124;2023-04-24T09:11:16;1.10;;;1.00;;
45694;SDS011;31408;45.468;9.124;2023-04-24T09:13:43;5.30;;;2.05;;
45694;SDS011;31408;45.468;9.124;2023-04-24T09:16:08;2.50;;;1.65;;
45694;SDS011;31408;45.468;9.124;2023-04-24T09:18:34;2.95;;;1.13;;
45694;SDS011;31408;45.468;9.124;2023-04-24T09:21:09;1.50;;;1.23;;
45694;SDS011;31408;45.468;9.124;2023-04-24T09:23:35;1.67;;;1.00;;
45694;SDS011;31408;45.468;9.124;2023-04-24T09:26:01;4.32;;;1.20;;
45694;SDS011;31408;45.468;9.124;2023-04-24T09:28:31;1.95;;;1.45;;
45694;SDS011;31408;45.468;9.124;2023-04-24T09:33:38;1.05;;;0.90;;
45694;SDS011;31408;45.468;9.124;2023-04-24T09:36:06;3.00;;;1.05;;
45694;SDS011;31408;45.468;9.124;2023-04-24T09:38:35;2.97;;;1.50;;
45694;SDS011;31408;45.468;9.124;2023-04-24T09:41:07;1.98;;;1.08;;
45694;SDS011;31408;45.468;9.124;2023-04-24T09:43:39;2.20;;;1.48;;
45694;SDS011;31408;45.468;9.124;2023-04-24T09:46:05;5.22;;;2.08;;
45694;SDS011;31408;45.468;9.124;2023-04-24T09:48:32;7.55;;;1.25;;
45694;SDS011;31408;45.468;9.124;2023-04-24T09:51:02;1.30;;;1.20;;
45694;SDS011;31408;45.468;9.124;2023-04-24T09:53:29;1.70;;;1.20;;
45694;SDS011;31408;45.468;9.124;2023-04-24T09:55:55;1.42;;;1.23;;
45694;SDS011;31408;45.468;9.124;2023-04-24T09:58:24;1.30;;;1.15;;
45694;SDS011;31408;45.468;9.124;2023-04-24T10:00:54;1.65;;;0.95;;
45694;SDS011;31408;45.468;9.124;2023-04-24T10:03:20;1.10;;;1.00;;
45694;SDS011;31408;45.468;9.124;2023-04-24T10:05:46;3.83;;;1.05;;
45694;SDS011;31408;45.468;9.124;2023-04-24T10:08:12;1.95;;;0.82;;
45694;SDS011;31408;45.468;9.124;2023-04-24T10:10:42;0.70;;;0.70;;
45694;SDS011;31408;45.468;9.124;2023-04-24T10:13:09;2.47;;;1.08;;
45694;SDS011;31408;45.468;9.124;2023-04-24T10:15:36;0.55;;;0.50;;
45694;SDS011;31408;45.468;9.124;2023-04-24T10:18:02;2.75;;;0.70;;
45694;SDS011;31408;45.468;9.124;2023-04-24T10:20:31;1.50;;;0.70;;
45694;SDS011;31408;45.468;9.124;2023-04-24T10:22:58;2.58;;;0.80;;
45694;SDS011;31408;45.468;9.124;2023-04-24T10:25:26;0.70;;;0.70;;
45694;SDS011;31408;45.468;9.124;2023-04-24T10:27:53;0.70;;;0.52;;
45694;SDS011;31408;45.468;9.124;2023-04-24T10:30:22;0.65;;;0.57;;
45694;SDS011;31408;45.468;9.124;2023-04-24T10:32:47;0.63;;;0.63;;
45694;SDS011;31408;45.468;9.124;2023-04-24T10:35:13;0.95;;;0.80;;
45694;SDS011;31408;45.468;9.124;2023-04-24T10:37:44;3.90;;;1.23;;
45694;SDS011;31408;45.468;9.124;2023-04-24T10:40:17;1.60;;;0.70;;
45694;SDS011;31408;45.468;9.124;2023-04-24T10:42:46;2.15;;;0.77;;
45694;SDS011;31408;45.468;9.124;2023-04-24T10:45:19;2.72;;;0.70;;
45694;SDS011;31408;45.468;9.124;2023-04-24T10:50:28;0.85;;;0.85;;
45694;SDS011;31408;45.468;9.124;2023-04-24T10:53:05;2.67;;;0.52;;
45694;SDS011;31408;45.468;9.124;2023-04-24T10:56:15;0.77;;;0.63;;
45694;SDS011;31408;45.468;9.124;2023-04-24T10:58:24;1.92;;;0.93;;
45694;SDS011;31408;45.468;9.124;2023-04-24T11:00:57;0.40;;;0.40;;
45694;SDS011;31408;45.468;9.124;2023-04-24T11:03:27;0.70;;;0.60;;
45694;SDS011;31408;45.468;9.124;2023-04-24T11:05:58;3.50;;;0.68;;
45694;SDS011;31408;45.468;9.124;2023-04-24T11:10:57;0.77;;;0.77;;
45694;SDS011;31408;45.468;9.124;2023-04-24T11:13:24;0.52;;;0.50;;
45694;SDS011;31408;45.468;9.124;2023-04-24T11:21:38;0.65;;;0.65;;
45694;SDS011;31408;45.468;9.124;2023-04-24T11:24:25;1.40;;;0.70;;
45694;SDS011;31408;45.468;9.124;2023-04-24T11:26:55;2.20;;;0.40;;
45694;SDS011;31408;45.468;9.124;2023-04-24T11:29:22;1.63;;;0.47;;
45694;SDS011;31408;45.468;9.124;2023-04-24T11:32:34;2.28;;;1.38;;
45694;SDS011;31408;45.468;9.124;2023-04-24T11:37:43;1.33;;;0.75;;
45694;SDS011;31408;45.468;9.124;2023-04-24T11:40:12;0.60;;;0.60;;
45694;SDS011;31408;45.468;9.124;2023-04-24T11:42:39;0.90;;;0.73;;
45694;SDS011;31408;45.468;9.124;2023-04-24T11:45:07;1.88;;;0.93;;
45694;SDS011;31408;45.468;9.124;2023-04-24T11:47:36;0.90;;;0.75;;
45694;SDS011;31408;45.468;9.124;2023-04-24T11:50:02;1.02;;;0.40;;
45694;SDS011;31408;45.468;9.124;2023-04-24T11:52:29;0.68;;;0.68;;
45694;SDS011;31408;45.468;9.124;2023-04-24T11:54:55;0.55;;;0.55;;
45694;SDS011;31408;45.468;9.124;2023-04-24T11:57:22;1.08;;;0.55;;
45694;SDS011;31408;45.468;9.124;2023-04-24T11:59:51;1.65;;;1.02;;
45694;SDS011;31408;45.468;9.124;2023-04-24T12:02:20;3.20;;;0.52;;
45694;SDS011;31408;45.468;9.124;2023-04-24T12:04:46;3.42;;;0.85;;
45694;SDS011;31408;45.468;9.124;2023-04-24T12:07:11;1.58;;;0.93;;
45694;SDS011;31408;45.468;9.124;2023-04-24T12:09:40;1.75;;;0.63;;
45694;SDS011;31408;45.468;9.124;2023-04-24T12:12:25;1.63;;;0.90;;
45694;SDS011;31408;45.468;9.124;2023-04-24T12:14:55;2.05;;;1.17;;
45694;SDS011;31408;45.468;9.124;2023-04-24T12:17:26;1.90;;;0.73;;
45694;SDS011;31408;45.468;9.124;2023-04-24T12:19:59;0.95;;;0.50;;
45694;SDS011;31408;45.468;9.124;2023-04-24T12:22:26;0.68;;;0.68;;
45694;SDS011;31408;45.468;9.124;2023-04-24T12:27:30;0.50;;;0.50;;
45694;SDS011;31408;45.468;9.124;2023-04-24T12:29:57;2.97;;;1.35;;
45694;SDS011;31408;45.468;9.124;2023-04-24T12:32:27;1.92;;;1.45;;
45694;SDS011;31408;45.468;9.124;2023-04-24T12:34:53;0.60;;;0.60;;
45694;SDS011;31408;45.468;9.124;2023-04-24T12:37:20;2.75;;;0.98;;
45694;SDS011;31408;45.468;9.124;2023-04-24T12:39:59;0.88;;;0.82;;
45694;SDS011;31408;45.468;9.124;2023-04-24T12:42:26;0.80;;;0.80;;
45694;SDS011;31408;45.468;9.124;2023-04-24T12:44:55;1.42;;;0.80;;
45694;SDS011;31408;45.468;9.124;2023-04-24T12:47:21;1.55;;;0.90;;
45694;SDS011;31408;45.468;9.124;2023-04-24T12:49:47;0.60;;;0.60;;
45694;SDS011;31408;45.468;9.124;2023-04-24T12:52:14;2.78;;;0.57;;
45694;SDS011;31408;45.468;9.124;2023-04-24T12:54:39;0.52;;;0.40;;
45694;SDS011;31408;45.468;9.124;2023-04-24T12:57:05;1.58;;;0.60;;
45694;SDS011;31408;45.468;9.124;2023-04-24T12:59:30;1.38;;;0.80;;
45694;SDS011;31408;45.468;9.124;2023-04-24T13:01:56;1.00;;;0.55;;
45694;SDS011;31408;45.468;9.124;2023-04-24T13:04:21;1.52;;;1.05;;
45694;SDS011;31408;45.468;9.124;2023-04-24T13:06:46;2.13;;;1.15;;
45694;SDS011;31408;45.468;9.124;2023-04-24T13:09:12;2.10;;;0.68;;
45694;SDS011;31408;45.468;9.124;2023-04-24T13:11:37;1.52;;;1.00;;
45694;SDS011;31408;45.468;9.124;2023-04-24T13:14:03;1.85;;;1.02;;
45694;SDS011;31408;45.468;9.124;2023-04-24T13:16:28;1.95;;;0.77;;
45694;SDS011;31408;45.468;9.124;2023-04-24T13:18:53;1.90;;;0.52;;
45694;SDS011;31408;45.468;9.124;2023-04-24T13:21:19;0.75;;;0.68;;
45694;SDS011;31408;45.468;9.124;2023-04-24T13:23:44;0.77;;;0.50;;
45694;SDS011;31408;45.468;9.124;2023-04-24T13:26:10;0.73;;;0.60;;
45694;SDS011;31408;45.468;9.124;2023-04-24T13:28:35;0.52;;;0.52;;
45694;SDS011;31408;45.468;9.124;2023-04-24T13:31:04;0.95;;;0.77;;
45694;SDS011;31408;45.468;9.124;2023-04-24T13:33:29;1.83;;;1.15;;
45694;SDS011;31408;45.468;9.124;2023-04-24T13:35:55;1.23;;;0.40;;
45694;SDS011;31408;45.468;9.124;2023-04-24T13:38:20;1.95;;;0.40;;
45694;SDS011;31408;45.468;9.124;2023-04-24T13:40:47;0.77;;;0.73;;
45694;SDS011;31408;45.468;9.124;2023-04-24T13:43:12;0.50;;;0.50;;
45694;SDS011;31408;45.468;9.124;2023-04-24T13:45:38;0.50;;;0.50;;
45694;SDS011;31408;45.468;9.124;2023-04-24T13:48:03;0.73;;;0.40;;
45694;SDS011;31408;45.468;9.124;2023-04-24T13:50:29;0.30;;;0.30;;
45694;SDS011;31408;45.468;9.124;2023-04-24T13:52:54;0.40;;;0.30;;
45694;SDS011;31408;45.468;9.124;2023-04-24T13:55:21;2.83;;;0.85;;
45694;SDS011;31408;45.468;9.124;2023-04-24T13:57:47;1.15;;;0.45;;
45694;SDS011;31408;45.468;9.124;2023-04-24T14:00:12;0.32;;;0.32;;
45694;SDS011;31408;45.468;9.124;2023-04-24T14:02:38;0.52;;;0.47;;
45694;SDS011;31408;45.468;9.124;2023-04-24T14:05:03;0.95;;;0.50;;
45694;SDS011;31408;45.468;9.124;2023-04-24T14:07:31;0.20;;;0.20;;
45694;SDS011;31408;45.468;9.124;2023-04-24T14:09:57;1.85;;;1.15;;
45694;SDS011;31408;45.468;9.124;2023-04-24T14:12:22;0.65;;;0.25;;
45694;SDS011;31408;45.468;9.124;2023-04-24T14:14:47;0.20;;;0.20;;
45694;SDS011;31408;45.468;9.124;2023-04-24T14:17:13;0.35;;;0.35;;
45694;SDS011;31408;45.468;9.124;2023-04-24T14:19:39;0.47;;;0.47;;
45694;SDS011;31408;45.468;9.124;2023-04-24T14:22:05;0.40;;;0.40;;
45694;SDS011;31408;45.468;9.124;2023-04-24T14:24:30;0.40;;;0.40;;
45694;SDS011;31408;45.468;9.124;2023-04-24T14:26:55;0.80;;;0.55;;
45694;SDS011;31408;45.468;9.124;2023-04-24T14:29:21;0.85;;;0.40;;
45694;SDS011;31408;45.468;9.124;2023-04-24T14:31:47;0.43;;;0.43;;
45694;SDS011;31408;45.468;9.124;2023-04-24T14:34:13;0.20;;;0.20;;
45694;SDS011;31408;45.468;9.124;2023-04-24T14:36:38;1.48;;;0.30;;
45694;SDS011;31408;45.468;9.124;2023-04-24T14:39:04;0.73;;;0.20;;
45694;SDS011;31408;45.468;9.124;2023-04-24T14:41:32;0.20;;;0.20;;
45694;SDS011;31408;45.468;9.124;2023-04-24T14:44:01;0.30;;;0.30;;
45694;SDS011;31408;45.468;9.124;2023-04-24T14:46:28;0.75;;;0.30;;
45694;SDS011;31408;45.468;9.124;2023-04-24T14:48:55;0.93;;;0.30;;
45694;SDS011;31408;45.468;9.124;2023-04-24T14:51:21;0.40;;;0.40;;
45694;SDS011;31408;45.468;9.124;2023-04-24T14:53:46;0.35;;;0.35;;
45694;SDS011;31408;45.468;9.124;2023-04-24T14:56:12;0.63;;;0.47;;
45694;SDS011;31408;45.468;9.124;2023-04-24T14:58:38;0.40;;;0.30;;
45694;SDS011;31408;45.468;9.124;2023-04-24T15:01:04;2.95;;;0.30;;
45694;SDS011;31408;45.468;9.124;2023-04-24T15:03:29;0.28;;;0.28;;
45694;SDS011;31408;45.468;9.124;2023-04-24T15:05:55;1.45;;;0.40;;